createdAt,value
2018-12-12T00:00:56.411Z,4.20
2018-12-12T00:03:25.046Z,5.63
2018-12-12T00:05:53.686Z,5.43
2018-12-12T00:08:22.332Z,5.47
2018-12-12T00:10:52.128Z,5.33
2018-12-12T00:13:20.799Z,5.27
2018-12-12T00:15:49.589Z,4.80
2018-12-12T00:18:18.294Z,7.23
2018-12-12T00:20:46.905Z,5.37
2018-12-12T00:23:15.695Z,5.10
2018-12-12T00:25:44.559Z,6.17
2018-12-12T00:28:13.140Z,4.87
2018-12-12T00:30:41.812Z,6.03
2018-12-12T00:33:10.879Z,5.13
2018-12-12T00:35:39.557Z,5.63
2018-12-12T00:38:08.238Z,4.90
2018-12-12T00:40:36.879Z,14.73
2018-12-12T00:43:05.505Z,6.03
2018-12-12T00:45:34.184Z,4.70
2018-12-12T00:48:02.815Z,4.80
2018-12-12T00:50:31.438Z,4.67
2018-12-12T00:53:00.079Z,4.90
2018-12-12T00:55:28.878Z,4.40
2018-12-12T00:57:57.642Z,4.87
2018-12-12T01:00:26.251Z,4.63
2018-12-12T01:02:54.893Z,5.20
2018-12-12T01:05:23.585Z,6.27
2018-12-12T01:07:52.220Z,5.80
2018-12-12T01:10:20.869Z,5.50
2018-12-12T01:12:49.557Z,6.00
2018-12-12T01:15:18.360Z,6.50
2018-12-12T01:17:46.969Z,6.13
2018-12-12T01:20:15.744Z,6.70
2018-12-12T01:22:44.408Z,5.83
2018-12-12T01:25:13.138Z,6.27
2018-12-12T01:27:41.731Z,5.57
2018-12-12T01:30:10.385Z,6.43
2018-12-12T01:32:39.020Z,6.90
2018-12-12T01:35:07.666Z,7.27
2018-12-12T01:37:36.351Z,6.50
2018-12-12T01:40:05.726Z,6.50
2018-12-12T01:42:34.359Z,6.33
2018-12-12T01:45:03.012Z,6.97
2018-12-12T01:47:31.665Z,8.03
2018-12-12T01:50:00.281Z,6.90
2018-12-12T01:52:28.983Z,7.23
2018-12-12T01:54:57.663Z,6.57
2018-12-12T01:57:26.345Z,7.00
2018-12-12T01:59:55.010Z,6.83
2018-12-12T02:02:23.627Z,7.37
2018-12-12T02:04:52.296Z,6.53
2018-12-12T02:07:20.919Z,7.30
2018-12-12T02:09:49.547Z,6.27
2018-12-12T02:12:18.161Z,7.33
2018-12-12T02:14:46.795Z,7.30
2018-12-12T02:17:15.387Z,9.97
2018-12-12T02:19:43.991Z,7.63
2018-12-12T02:22:12.777Z,7.50
2018-12-12T02:24:41.429Z,11.40
2018-12-12T02:27:10.091Z,9.00
2018-12-12T02:29:38.750Z,6.57
2018-12-12T02:32:07.414Z,6.90
2018-12-12T02:34:36.318Z,7.43
2018-12-12T02:37:05.133Z,6.90
2018-12-12T02:39:33.744Z,6.67
2018-12-12T02:42:02.444Z,6.60
2018-12-12T02:44:31.095Z,6.67
2018-12-12T02:46:59.711Z,7.53
2018-12-12T02:49:28.375Z,7.40
2018-12-12T02:51:57.005Z,7.53
2018-12-12T02:54:25.858Z,7.30
2018-12-12T02:56:54.540Z,7.00
2018-12-12T02:59:23.140Z,6.57
2018-12-12T03:01:51.801Z,6.80
2018-12-12T03:04:20.130Z,7.10
2018-12-12T03:06:48.803Z,6.63
2018-12-12T03:09:17.435Z,7.43
2018-12-12T03:11:46.213Z,7.37
2018-12-12T03:14:15.012Z,7.03
2018-12-12T03:16:43.831Z,7.47
2018-12-12T03:19:12.462Z,6.50
2018-12-12T03:21:47.484Z,7.00
2018-12-12T03:24:16.174Z,7.80
2018-12-12T03:26:44.782Z,7.00
2018-12-12T03:29:13.411Z,7.13
2018-12-12T03:31:41.995Z,7.60
2018-12-12T03:34:10.984Z,8.27
2018-12-12T03:36:40.600Z,8.77
2018-12-12T03:39:09.303Z,8.30
2018-12-12T03:41:37.926Z,8.40
2018-12-12T03:44:06.549Z,9.70
2018-12-12T03:46:35.192Z,9.80
2018-12-12T03:49:03.972Z,9.20
2018-12-12T03:51:32.603Z,11.23
2018-12-12T03:54:01.358Z,8.40
2018-12-12T03:56:29.992Z,8.10
2018-12-12T03:58:58.619Z,8.60
2018-12-12T04:01:27.255Z,8.33
2018-12-12T04:03:55.886Z,9.10
2018-12-12T04:06:24.530Z,9.27
2018-12-12T04:08:53.913Z,9.00
2018-12-12T04:11:22.559Z,10.30
2018-12-12T04:13:51.230Z,10.80
2018-12-12T04:16:20.242Z,8.60
2018-12-12T04:18:49.307Z,8.33
2018-12-12T04:21:17.980Z,8.27
2018-12-12T04:23:46.615Z,7.47
2018-12-12T04:26:15.283Z,8.03
2018-12-12T04:28:43.964Z,8.23
2018-12-12T04:31:12.651Z,7.80
2018-12-12T04:33:41.306Z,7.77
2018-12-12T04:36:10.020Z,8.57
2018-12-12T04:38:38.686Z,7.17
2018-12-12T04:41:07.357Z,8.43
2018-12-12T04:43:35.985Z,8.27
2018-12-12T04:46:04.642Z,7.97
2018-12-12T04:48:33.295Z,7.93
2018-12-12T04:51:01.972Z,7.97
2018-12-12T04:53:30.712Z,7.60
2018-12-12T04:55:59.382Z,8.17
2018-12-12T04:58:28.017Z,8.67
2018-12-12T05:00:56.655Z,8.07
2018-12-12T05:03:25.282Z,9.03
2018-12-12T05:05:53.938Z,8.37
2018-12-12T05:08:22.225Z,9.60
2018-12-12T05:10:50.900Z,8.63
2018-12-12T05:13:19.520Z,8.57
2018-12-12T05:15:48.182Z,8.73
2018-12-12T05:18:16.907Z,8.07
2018-12-12T05:20:45.570Z,8.30
2018-12-12T05:23:14.227Z,8.80
2018-12-12T05:25:43.058Z,8.27
2018-12-12T05:28:11.697Z,8.40
2018-12-12T05:30:40.347Z,7.70
2018-12-12T05:33:09.043Z,7.87
2018-12-12T05:35:37.682Z,7.53
2018-12-12T05:38:06.318Z,8.30
2018-12-12T05:40:35.337Z,8.17
2018-12-12T05:43:04.004Z,8.10
2018-12-12T05:45:33.157Z,8.17
2018-12-12T05:48:01.777Z,8.13
2018-12-12T05:50:30.383Z,8.17
2018-12-12T05:52:59.013Z,9.03
2018-12-12T05:55:28.850Z,8.50
2018-12-12T05:57:57.646Z,8.10
2018-12-12T06:00:26.405Z,8.00
2018-12-12T06:02:55.122Z,8.50
2018-12-12T06:05:23.940Z,8.50
2018-12-12T06:07:52.603Z,8.93
2018-12-12T06:10:21.215Z,8.23
2018-12-12T06:12:49.885Z,8.23
2018-12-12T06:15:18.590Z,8.47
2018-12-12T06:17:47.215Z,8.77
2018-12-12T06:20:15.903Z,8.70
2018-12-12T06:22:44.798Z,8.60
2018-12-12T06:25:13.810Z,8.00
2018-12-12T06:27:42.495Z,8.03
2018-12-12T06:30:11.161Z,8.10
2018-12-12T06:32:39.790Z,9.40
2018-12-12T06:35:08.653Z,8.23
2018-12-12T06:37:37.257Z,7.97
2018-12-12T06:40:06.041Z,8.30
2018-12-12T06:42:34.683Z,8.80
2018-12-12T06:45:03.006Z,9.00
2018-12-12T06:51:17.582Z,9.43
2018-12-12T06:53:46.242Z,8.87
2018-12-12T06:56:14.928Z,8.43
2018-12-12T06:58:43.680Z,9.00
2018-12-12T07:01:12.477Z,9.03
2018-12-12T07:03:41.129Z,9.37
2018-12-12T07:06:09.778Z,9.07
2018-12-12T07:08:38.417Z,9.47
2018-12-12T07:11:07.086Z,8.97
2018-12-12T07:13:36.031Z,8.93
2018-12-12T07:16:05.038Z,8.90
2018-12-12T07:18:33.679Z,9.07
2018-12-12T07:21:02.431Z,9.30
2018-12-12T07:23:31.045Z,10.03
2018-12-12T07:25:59.734Z,9.97
2018-12-12T07:28:28.411Z,9.27
2018-12-12T07:30:57.195Z,9.50
2018-12-12T07:33:25.847Z,10.87
2018-12-12T07:35:59.537Z,9.83
2018-12-12T07:38:25.324Z,9.80
2018-12-12T07:40:53.960Z,9.43
2018-12-12T07:43:22.704Z,10.03
2018-12-12T07:45:51.340Z,9.20
2018-12-12T07:48:20.368Z,10.30
2018-12-12T07:50:49.011Z,10.40
2018-12-12T07:53:17.744Z,10.27
2018-12-12T07:55:47.191Z,9.60
2018-12-12T07:58:15.755Z,13.13
2018-12-12T08:00:44.453Z,10.07
2018-12-12T08:05:40.683Z,9.20
2018-12-12T08:23:12.265Z,2.70
2018-12-12T08:25:41.495Z,2.50
2018-12-12T08:30:23.327Z,2.30
2018-12-12T08:34:03.902Z,2.50
2018-12-12T08:38:23.229Z,7.50
2018-12-12T08:40:51.901Z,6.67
2018-12-12T08:43:20.238Z,5.47
2018-12-12T08:45:48.995Z,5.17
2018-12-12T08:48:17.702Z,6.03
2018-12-12T08:50:48.428Z,6.67
2018-12-12T08:53:17.119Z,7.83
2018-12-12T08:55:45.437Z,7.20
2018-12-12T08:58:14.156Z,8.67
2018-12-12T09:00:42.513Z,8.90
2018-12-12T09:03:10.849Z,9.83
2018-12-12T09:05:39.231Z,10.10
2018-12-12T09:08:07.951Z,9.53
2018-12-12T09:10:36.327Z,10.00
2018-12-12T09:13:05.118Z,9.97
2018-12-12T09:15:33.527Z,10.70
2018-12-12T09:18:02.751Z,11.50
2018-12-12T09:20:31.437Z,11.77
2018-12-12T09:22:59.771Z,12.00
2018-12-12T09:25:28.094Z,11.93
2018-12-12T09:27:56.850Z,11.97
2018-12-12T09:30:25.170Z,12.30
2018-12-12T09:32:54.067Z,11.77
2018-12-12T09:35:23.468Z,12.13
2018-12-12T09:37:51.896Z,11.97
2018-12-12T09:40:20.494Z,11.47
2018-12-12T09:42:51.564Z,12.20
2018-12-12T09:45:26.646Z,10.70
2018-12-12T09:47:54.994Z,9.90
2018-12-12T09:50:23.899Z,11.13
2018-12-12T09:52:52.738Z,10.63
2018-12-12T09:55:21.097Z,10.63
2018-12-12T09:57:49.815Z,11.33
2018-12-12T10:00:18.489Z,10.90
2018-12-12T10:02:48.108Z,12.20
2018-12-12T10:05:17.172Z,10.77
2018-12-12T10:07:48.243Z,11.30
2018-12-12T10:10:16.708Z,11.93
2018-12-12T10:12:45.421Z,11.87
2018-12-12T10:15:22.424Z,12.43
2018-12-12T10:17:51.395Z,11.47
2018-12-12T10:20:20.070Z,10.77
2018-12-12T10:22:48.818Z,12.47
2018-12-12T10:25:17.485Z,12.30
2018-12-12T10:27:46.192Z,11.93
2018-12-12T10:30:14.943Z,12.57
2018-12-12T10:32:43.687Z,13.70
2018-12-12T10:35:12.332Z,12.03
2018-12-12T10:37:41.000Z,11.80
2018-12-12T10:47:11.402Z,11.37
2018-12-12T10:49:40.120Z,14.47
2018-12-12T10:52:08.832Z,11.57
2018-12-12T10:54:37.727Z,14.53
2018-12-12T10:57:06.402Z,11.63
2018-12-12T10:59:35.046Z,12.30
2018-12-12T11:02:09.021Z,11.03
2018-12-12T11:04:37.622Z,11.77
2018-12-12T11:07:06.236Z,13.07
2018-12-12T11:09:34.917Z,10.20
2018-12-12T11:12:03.735Z,10.63
2018-12-12T11:14:32.410Z,15.40
2018-12-12T11:17:01.137Z,10.87
2018-12-12T11:19:29.887Z,10.63
2018-12-12T11:21:58.590Z,11.10
2018-12-12T11:24:26.928Z,10.93
2018-12-12T11:26:55.817Z,11.10
2018-12-12T11:29:24.607Z,10.97
2018-12-12T11:31:53.307Z,11.30
2018-12-12T11:34:22.048Z,10.57
2018-12-12T11:36:50.783Z,10.75
2018-12-12T11:39:19.469Z,10.37
2018-12-12T11:41:47.826Z,8.50
2018-12-12T11:44:16.692Z,9.33
2018-12-12T11:46:45.441Z,13.30
2018-12-12T11:49:14.187Z,12.20
2018-12-12T11:51:43.835Z,18.73
2018-12-12T11:54:12.531Z,13.33
2018-12-12T11:56:41.171Z,11.47
2018-12-12T11:59:09.834Z,10.93
2018-12-12T12:01:38.555Z,11.90
2018-12-12T12:04:07.382Z,10.20
2018-12-12T12:06:36.067Z,10.43
2018-12-12T12:09:08.330Z,9.27
2018-12-12T12:11:37.036Z,11.53
2018-12-12T12:14:05.415Z,9.57
2018-12-12T12:16:34.128Z,11.00
2018-12-12T12:19:02.849Z,9.47
2018-12-12T12:21:31.657Z,8.40
2018-12-12T12:24:00.074Z,9.00
2018-12-12T12:26:29.075Z,8.90
2018-12-12T12:28:57.982Z,9.07
2018-12-12T12:31:26.712Z,8.50
2018-12-12T12:33:55.539Z,16.60
2018-12-12T12:36:24.252Z,15.13
2018-12-12T12:38:52.991Z,8.10
2018-12-12T12:41:21.708Z,8.57
2018-12-12T12:43:50.330Z,9.67
2018-12-12T12:46:19.047Z,10.53
2018-12-12T12:48:47.716Z,9.20
2018-12-12T12:51:16.418Z,10.57
2018-12-12T12:53:45.100Z,12.27
2018-12-12T12:56:13.768Z,8.23
2018-12-12T12:58:42.483Z,7.97
2018-12-12T13:01:11.571Z,7.50
2018-12-12T13:03:40.870Z,7.80
2018-12-12T13:06:09.577Z,7.60
2018-12-12T13:08:37.883Z,8.70
2018-12-12T13:11:06.583Z,7.17
2018-12-12T13:13:35.388Z,9.07
2018-12-12T13:16:04.274Z,7.30
2018-12-12T13:18:33.029Z,8.83
2018-12-12T13:21:02.454Z,10.30
2018-12-12T13:24:21.676Z,8.33
2018-12-12T13:26:53.319Z,7.80
2018-12-12T13:29:21.055Z,8.73
2018-12-12T13:31:49.688Z,9.43
2018-12-12T13:34:18.105Z,10.40
2018-12-12T13:36:46.467Z,8.17
2018-12-12T13:39:15.172Z,8.60
2018-12-12T13:41:43.840Z,8.00
2018-12-12T13:44:12.548Z,8.20
2018-12-12T13:46:41.235Z,7.30
2018-12-12T13:49:09.889Z,8.87
2018-12-12T13:51:40.207Z,7.27
2018-12-12T13:54:10.453Z,7.30
2018-12-12T13:56:44.752Z,10.77
2018-12-12T13:59:13.405Z,7.00
2018-12-12T14:01:42.084Z,7.40
2018-12-12T14:04:10.688Z,7.30
2018-12-12T14:06:40.067Z,6.30
2018-12-12T14:09:08.840Z,6.80
2018-12-12T14:11:41.680Z,5.93
2018-12-12T14:14:16.940Z,5.07
2018-12-12T14:16:59.462Z,7.10
2018-12-12T14:19:28.984Z,5.30
2018-12-12T14:21:57.783Z,5.33
2018-12-12T14:24:29.734Z,4.90
2018-12-12T14:26:58.488Z,4.77
2018-12-12T14:29:26.814Z,5.13
2018-12-12T14:31:55.463Z,5.13
2018-12-12T14:34:29.217Z,4.70
2018-12-12T14:36:55.174Z,3.90
2018-12-12T14:39:27.767Z,4.67
2018-12-12T14:41:56.676Z,4.60
2018-12-12T14:44:25.393Z,5.37
2018-12-12T14:46:54.722Z,5.37
2018-12-12T14:49:24.261Z,5.07
2018-12-12T14:51:53.761Z,16.57
2018-12-12T14:54:22.608Z,12.17
2018-12-12T14:56:51.417Z,7.23
2018-12-12T14:59:20.055Z,5.30
2018-12-12T15:01:48.736Z,6.17
2018-12-12T15:04:17.026Z,11.03
2018-12-12T15:06:45.329Z,5.70
2018-12-12T15:09:13.645Z,10.30
2018-12-12T15:11:42.343Z,6.43
2018-12-12T15:14:10.947Z,6.13
2018-12-12T15:16:39.633Z,6.43
2018-12-12T15:19:08.282Z,7.60
2018-12-12T15:21:36.926Z,6.87
2018-12-12T15:24:05.583Z,7.20
2018-12-12T15:26:34.250Z,6.50
2018-12-12T15:29:02.868Z,6.83
2018-12-12T15:31:33.296Z,8.03
2018-12-12T15:34:05.418Z,6.37
2018-12-12T15:36:33.712Z,11.00
2018-12-12T15:39:02.425Z,8.10
2018-12-12T15:41:31.037Z,9.27
2018-12-12T15:44:03.272Z,7.93
2018-12-12T15:49:09.351Z,10.17
2018-12-12T15:51:37.807Z,9.47
2018-12-12T15:54:06.376Z,9.03
2018-12-12T15:56:35.136Z,10.43
2018-12-12T15:59:03.803Z,8.73
2018-12-12T16:01:32.736Z,14.97
2018-12-12T16:04:01.895Z,10.80
2018-12-12T16:06:30.829Z,11.03
2018-12-12T16:08:59.476Z,10.90
2018-12-12T16:11:28.099Z,10.93
2018-12-12T16:13:56.807Z,11.93
2018-12-12T16:16:25.676Z,11.57
2018-12-12T16:18:54.320Z,10.97
2018-12-12T16:21:23.178Z,12.97
2018-12-12T16:23:53.395Z,16.87
2018-12-12T16:26:25.468Z,20.17
2018-12-12T16:28:54.236Z,17.00
2018-12-12T16:31:31.658Z,26.00
2018-12-12T16:34:03.503Z,46.67
2018-12-12T16:36:33.430Z,18.73
2018-12-12T16:39:02.087Z,14.73
2018-12-12T16:41:30.765Z,11.77
2018-12-12T16:43:59.970Z,11.70
2018-12-12T16:46:28.743Z,11.20
2018-12-12T16:48:57.410Z,11.50
2018-12-12T16:51:26.060Z,11.83
2018-12-12T16:53:54.711Z,11.40
2018-12-12T16:56:23.587Z,12.50
2018-12-12T16:58:52.224Z,10.73
2018-12-12T17:01:21.302Z,12.10
2018-12-12T17:03:50.255Z,12.60
2018-12-12T17:06:18.982Z,13.13
2018-12-12T17:08:48.659Z,12.10
2018-12-12T17:11:16.999Z,12.90
2018-12-12T17:16:39.319Z,12.83
2018-12-12T17:19:07.923Z,13.90
2018-12-12T17:21:36.218Z,13.63
2018-12-12T17:24:08.487Z,13.23
2018-12-12T17:26:37.119Z,14.53
2018-12-12T17:29:05.810Z,13.73
2018-12-12T17:31:34.511Z,14.67
2018-12-12T17:34:03.110Z,13.30
2018-12-12T17:36:31.735Z,13.93
2018-12-12T17:39:14.854Z,15.17
2018-12-12T17:41:43.482Z,14.57
2018-12-12T17:44:12.137Z,14.40
2018-12-12T17:46:40.774Z,13.93
2018-12-12T17:49:09.375Z,14.63
2018-12-12T17:51:38.069Z,14.53
2018-12-12T17:54:12.399Z,15.10
2018-12-12T17:56:41.092Z,16.73
2018-12-12T17:59:10.218Z,15.80
2018-12-12T18:01:38.883Z,17.50
2018-12-12T18:04:07.555Z,17.67
2018-12-12T18:06:36.235Z,19.33
2018-12-12T18:09:07.883Z,18.00
2018-12-12T18:11:36.543Z,16.93
2018-12-12T18:16:57.996Z,17.60
2018-12-12T18:19:26.240Z,17.90
2018-12-12T18:21:56.967Z,19.63
2018-12-12T18:24:25.817Z,19.60
2018-12-12T18:26:54.644Z,24.93
2018-12-12T18:29:23.267Z,24.67
2018-12-12T18:31:51.949Z,21.43
2018-12-12T18:34:20.591Z,19.23
2018-12-12T18:36:49.262Z,17.07
2018-12-12T18:39:17.934Z,18.67
2018-12-12T18:41:46.567Z,20.10
2018-12-12T18:44:15.194Z,18.83
2018-12-12T18:46:43.843Z,18.57
2018-12-12T18:49:12.645Z,18.77
2018-12-12T18:51:41.272Z,19.43
2018-12-12T18:54:10.128Z,17.43
2018-12-12T18:56:45.263Z,18.00
2018-12-12T18:59:13.944Z,18.00
2018-12-12T19:01:42.602Z,18.20
2018-12-12T19:04:11.373Z,18.03
2018-12-12T19:06:40.119Z,17.77
2018-12-12T19:09:08.994Z,17.43
2018-12-12T19:11:41.629Z,18.57
2018-12-12T19:14:08.324Z,16.93
2018-12-12T19:16:37.040Z,19.47
2018-12-12T19:19:05.821Z,17.37
2018-12-12T19:21:34.546Z,16.23
2018-12-12T19:24:03.222Z,14.67
2018-12-12T19:26:31.980Z,14.70
2018-12-12T19:29:00.637Z,15.60
2018-12-12T19:31:29.503Z,14.37
2018-12-12T19:33:58.349Z,14.77
2018-12-12T19:36:27.251Z,13.97
2018-12-12T19:38:55.867Z,14.50
2018-12-12T19:41:24.591Z,15.10
2018-12-12T19:43:53.218Z,13.30
2018-12-12T19:46:22.144Z,13.07
2018-12-12T19:48:50.802Z,14.03
2018-12-12T19:51:19.516Z,12.30
2018-12-12T19:53:48.250Z,13.57
2018-12-12T19:56:16.883Z,13.50
2018-12-12T19:58:45.649Z,15.87
2018-12-12T20:01:14.569Z,16.03
2018-12-12T20:03:43.371Z,15.67
2018-12-12T20:06:12.168Z,15.77
2018-12-12T20:08:40.983Z,17.40
2018-12-12T20:11:09.780Z,17.33
2018-12-12T20:13:51.829Z,16.77
2018-12-12T20:16:20.511Z,17.33
2018-12-12T20:18:49.204Z,18.37
2018-12-12T20:21:24.336Z,17.23
2018-12-12T20:23:53.124Z,17.60
2018-12-12T20:26:21.814Z,17.93
2018-12-12T20:28:50.499Z,18.00
2018-12-12T20:31:19.175Z,19.50
2018-12-12T20:33:47.621Z,18.03
2018-12-12T20:36:16.439Z,17.23
2018-12-12T20:38:45.143Z,17.07
2018-12-12T20:41:13.905Z,15.73
2018-12-12T20:43:42.609Z,16.93
2018-12-12T20:46:11.359Z,15.67
2018-12-12T20:48:40.084Z,14.40
2018-12-12T20:51:08.738Z,17.27
2018-12-12T20:53:37.623Z,21.73
2018-12-12T20:56:05.914Z,18.50
2018-12-12T20:58:34.566Z,15.30
2018-12-12T21:01:03.246Z,12.63
2018-12-12T21:03:31.974Z,12.67
2018-12-12T21:06:00.299Z,14.03
2018-12-12T21:08:28.938Z,13.40
2018-12-12T21:10:57.558Z,14.10
2018-12-12T21:13:26.146Z,13.50
2018-12-12T21:15:54.896Z,12.73
2018-12-12T21:18:23.313Z,12.33
2018-12-12T21:20:51.971Z,12.87
2018-12-12T21:23:20.647Z,11.90
2018-12-12T21:25:49.767Z,11.60
2018-12-12T21:28:18.416Z,12.27
2018-12-12T21:30:47.219Z,10.93
2018-12-12T21:33:15.872Z,11.23
2018-12-12T21:35:44.547Z,11.60
2018-12-12T21:38:13.218Z,11.27
2018-12-12T21:40:41.904Z,11.10
2018-12-12T21:43:10.520Z,12.33
2018-12-12T21:45:39.190Z,12.20
2018-12-12T21:48:08.054Z,13.30
2018-12-12T21:50:36.708Z,12.83
2018-12-12T21:53:05.309Z,13.30
2018-12-12T21:55:33.933Z,12.70
2018-12-12T21:58:02.192Z,12.63
2018-12-12T22:00:30.489Z,14.17
2018-12-12T22:02:58.787Z,13.53
2018-12-12T22:05:27.563Z,14.90
2018-12-12T22:07:56.199Z,13.87
2018-12-12T22:10:24.818Z,13.80
2018-12-12T22:12:53.502Z,12.87
2018-12-12T22:15:22.176Z,14.43
2018-12-12T22:17:50.886Z,14.77
2018-12-12T22:20:19.500Z,14.47
2018-12-12T22:22:48.214Z,14.20
2018-12-12T22:25:16.910Z,14.60
2018-12-12T22:27:45.559Z,13.70
2018-12-12T22:30:14.160Z,13.87
2018-12-12T22:32:42.926Z,14.27
2018-12-12T22:35:11.562Z,13.50
2018-12-12T22:37:40.210Z,13.43
2018-12-12T22:40:08.955Z,13.80
2018-12-12T22:42:37.599Z,13.27
2018-12-12T22:45:06.520Z,12.63
2018-12-12T22:47:35.193Z,13.00
2018-12-12T22:50:04.016Z,12.73
2018-12-12T22:52:32.607Z,11.67
2018-12-12T22:55:01.265Z,13.07
2018-12-12T22:57:29.887Z,12.30
2018-12-12T22:59:58.567Z,13.20
2018-12-12T23:02:27.243Z,11.33
2018-12-12T23:04:56.895Z,12.47
2018-12-12T23:07:25.584Z,11.50
2018-12-12T23:09:54.231Z,12.00
2018-12-12T23:12:22.931Z,10.83
2018-12-12T23:14:51.559Z,12.40
2018-12-12T23:17:20.226Z,12.57
2018-12-12T23:19:48.934Z,12.83
2018-12-12T23:22:17.579Z,11.80
2018-12-12T23:24:46.230Z,12.83
2018-12-12T23:27:14.864Z,12.70
2018-12-12T23:29:43.523Z,12.47
2018-12-12T23:32:12.183Z,12.83
2018-12-12T23:34:40.804Z,11.20
2018-12-12T23:37:09.419Z,11.30
2018-12-12T23:39:37.702Z,12.23
2018-12-12T23:42:06.326Z,12.00
2018-12-12T23:44:34.942Z,12.63
2018-12-12T23:47:03.568Z,11.17
2018-12-12T23:49:32.245Z,11.50
2018-12-12T23:52:00.913Z,11.07
2018-12-12T23:54:29.581Z,11.67
2018-12-12T23:56:58.211Z,10.47
2018-12-12T23:59:26.880Z,10.83
